createdAt,value
2022-09-12T00:04:28.822Z,8.13
2022-09-12T00:09:32.163Z,8.07
2022-09-12T00:14:36.901Z,7.97
2022-09-12T00:19:40.406Z,6.82
2022-09-12T00:24:43.791Z,6.85
2022-09-12T00:29:48.403Z,6.25
2022-09-12T00:34:51.750Z,6.38
2022-09-12T00:39:55.352Z,6.95
2022-09-12T00:45:00.389Z,7.28
2022-09-12T00:50:08.545Z,6.55
2022-09-12T00:55:16.453Z,6.20
2022-09-12T01:00:23.459Z,5.70
2022-09-12T01:05:28.506Z,5.22
2022-09-12T01:10:32.594Z,5.13
2022-09-12T01:15:39.164Z,4.63
2022-09-12T01:20:52.369Z,4.85
2022-09-12T01:26:11.408Z,4.78
2022-09-12T01:31:21.451Z,5.10
2022-09-12T01:36:42.482Z,4.32
2022-09-12T01:41:55.893Z,4.95
2022-09-12T01:47:08.517Z,5.00
2022-09-12T01:52:19.505Z,7.30
2022-09-12T01:57:30.285Z,5.30
2022-09-12T02:02:39.674Z,4.95
2022-09-12T02:07:46.955Z,4.63
2022-09-12T02:12:54.118Z,5.18
2022-09-12T02:18:01.688Z,4.60
2022-09-12T02:23:08.933Z,4.55
2022-09-12T02:28:15.344Z,4.28
2022-09-12T02:33:26.771Z,4.25
2022-09-12T02:38:39.186Z,4.60
2022-09-12T02:43:42.621Z,4.50
2022-09-12T02:48:47.314Z,4.38
2022-09-12T02:53:51.090Z,4.75
2022-09-12T02:58:55.757Z,4.40
2022-09-12T03:04:21.809Z,4.38
2022-09-12T03:09:32.095Z,4.57
2022-09-12T03:15:01.727Z,3.85
2022-09-12T03:20:11.759Z,4.45
2022-09-12T03:25:19.124Z,4.70
2022-09-12T03:30:22.475Z,4.57
2022-09-12T03:35:27.285Z,4.80
2022-09-12T03:40:30.572Z,4.82
2022-09-12T03:45:34.096Z,4.30
2022-09-12T03:50:38.845Z,4.47
2022-09-12T03:55:42.455Z,4.30
2022-09-12T04:00:46.202Z,5.13
2022-09-12T04:05:51.523Z,4.90
2022-09-12T04:10:54.837Z,4.40
2022-09-12T04:15:58.585Z,5.20
2022-09-12T04:21:07.283Z,5.05
2022-09-12T04:26:11.539Z,4.53
2022-09-12T04:31:17.815Z,5.50
2022-09-12T04:36:22.887Z,5.03
2022-09-12T04:41:28.543Z,5.82
2022-09-12T04:46:33.615Z,5.40
2022-09-12T04:51:42.144Z,5.28
2022-09-12T04:56:47.324Z,4.82
2022-09-12T05:01:51.014Z,5.20
2022-09-12T05:06:55.759Z,4.80
2022-09-12T05:12:04.095Z,5.85
2022-09-12T05:17:08.686Z,5.15
2022-09-12T05:22:13.309Z,5.10
2022-09-12T05:27:16.651Z,5.22
2022-09-12T05:32:20.788Z,5.35
2022-09-12T05:37:25.668Z,5.70
2022-09-12T05:42:31.414Z,5.93
2022-09-12T05:47:34.958Z,5.00
2022-09-12T05:52:39.662Z,5.47
2022-09-12T05:57:45.836Z,5.93
2022-09-12T06:02:53.267Z,5.63
2022-09-12T06:07:58.009Z,5.57
2022-09-12T06:13:01.345Z,5.60
2022-09-12T06:18:04.856Z,5.25
2022-09-12T06:23:09.513Z,5.45
2022-09-12T06:28:12.862Z,5.15
2022-09-12T06:33:16.505Z,5.00
2022-09-12T06:38:21.181Z,5.35
2022-09-12T06:43:24.725Z,5.68
2022-09-12T06:48:28.687Z,4.38
2022-09-12T06:53:34.397Z,4.15
2022-09-12T06:58:38.722Z,4.70
2022-09-12T07:03:43.308Z,3.53
2022-09-12T07:08:48.754Z,3.42
2022-09-12T07:13:54.178Z,3.78
2022-09-12T07:18:59.561Z,2.85
2022-09-12T07:24:04.680Z,2.70
2022-09-12T07:29:34.749Z,2.40
2022-09-12T07:34:32.848Z,2.78
2022-09-12T07:39:37.918Z,2.45
2022-09-12T07:44:41.511Z,3.00
2022-09-12T07:49:45.169Z,2.80
2022-09-12T07:54:49.845Z,2.70
2022-09-12T07:59:53.566Z,3.13
2022-09-12T08:04:57.373Z,2.70
2022-09-12T08:10:02.297Z,1.95
2022-09-12T08:15:06.462Z,2.47
2022-09-12T08:20:10.405Z,2.72
2022-09-12T08:25:15.105Z,2.40
2022-09-12T08:30:18.929Z,2.47
2022-09-12T08:35:22.313Z,2.42
2022-09-12T08:40:27.094Z,2.47
2022-09-12T08:45:37.212Z,2.45
2022-09-12T08:50:49.227Z,2.13
2022-09-12T08:55:58.788Z,2.75
2022-09-12T09:01:08.394Z,2.35
2022-09-12T09:06:23.664Z,2.38
2022-09-12T09:11:58.709Z,2.63
2022-09-12T09:17:03.060Z,3.35
2022-09-12T09:22:12.141Z,2.58
2022-09-12T09:27:40.328Z,2.50
2022-09-12T09:32:47.981Z,2.30
2022-09-12T09:38:03.103Z,3.15
2022-09-12T09:43:20.632Z,3.72
2022-09-12T09:48:28.243Z,2.60
2022-09-12T09:53:38.357Z,3.10
2022-09-12T09:58:43.657Z,3.15
2022-09-12T10:03:52.394Z,2.97
2022-09-12T10:09:09.486Z,2.55
2022-09-12T10:14:35.108Z,3.20
2022-09-12T10:19:40.772Z,3.13
2022-09-12T10:24:49.959Z,2.72
2022-09-12T10:30:01.264Z,2.83
2022-09-12T10:35:09.061Z,2.30
2022-09-12T10:40:25.246Z,2.13
2022-09-12T10:45:32.477Z,2.55
2022-09-12T10:50:41.623Z,2.10
2022-09-12T10:55:59.644Z,2.20
2022-09-12T11:01:15.478Z,2.10
2022-09-12T11:06:27.198Z,2.20
2022-09-12T11:11:54.921Z,2.25
2022-09-12T11:17:13.737Z,2.03
2022-09-12T11:22:32.069Z,3.30
2022-09-12T11:27:50.740Z,2.33
2022-09-12T11:33:29.668Z,2.50
2022-09-12T11:38:57.487Z,2.95
2022-09-12T11:44:08.375Z,2.83
2022-09-12T11:49:23.691Z,2.22
2022-09-12T11:54:34.746Z,2.25
2022-09-12T11:59:45.965Z,1.65
2022-09-12T12:05:02.792Z,2.15
2022-09-12T12:10:09.776Z,2.13
2022-09-12T12:15:17.737Z,1.90
2022-09-12T12:20:21.395Z,2.80
2022-09-12T12:25:40.068Z,2.47
2022-09-12T12:31:03.079Z,2.90
2022-09-12T12:41:46.512Z,2.20
2022-09-12T12:47:16.497Z,2.22
2022-09-12T12:52:20.524Z,1.85
2022-09-12T12:57:50.408Z,2.05
2022-09-12T13:02:57.981Z,2.10
2022-09-12T13:08:07.819Z,4.57
2022-09-12T13:13:24.690Z,2.70
2022-09-12T13:18:30.986Z,2.22
2022-09-12T13:23:35.206Z,2.30
2022-09-12T13:28:40.479Z,1.67
2022-09-12T13:33:47.231Z,2.05
2022-09-12T13:39:06.499Z,2.10
2022-09-12T13:44:15.991Z,2.20
2022-09-12T13:49:28.454Z,3.05
2022-09-12T13:54:33.545Z,2.00
2022-09-12T13:59:42.721Z,2.22
2022-09-12T14:05:05.730Z,2.00
2022-09-12T14:15:22.268Z,2.17
2022-09-12T14:20:25.877Z,2.22
2022-09-12T14:25:39.063Z,2.63
2022-09-12T14:30:59.792Z,2.40
2022-09-12T14:36:24.100Z,2.47
2022-09-12T14:41:30.620Z,1.70
2022-09-12T14:46:37.072Z,1.55
2022-09-12T14:51:47.111Z,2.13
2022-09-12T14:56:56.981Z,2.50
2022-09-12T15:02:22.427Z,2.33
2022-09-12T15:07:34.706Z,1.77
2022-09-12T15:12:38.030Z,1.70
2022-09-12T15:17:43.052Z,1.90
2022-09-12T15:22:46.807Z,2.05
2022-09-12T15:27:53.777Z,2.15
2022-09-12T15:33:00.072Z,2.17
2022-09-12T15:38:03.460Z,1.90
2022-09-12T15:43:06.807Z,2.15
2022-09-12T15:48:11.855Z,2.35
2022-09-12T15:53:17.019Z,2.40
2022-09-12T15:58:20.694Z,2.25
2022-09-12T16:03:27.609Z,2.38
2022-09-12T16:08:32.954Z,2.20
2022-09-12T16:13:36.496Z,2.60
2022-09-12T16:18:42.292Z,2.45
2022-09-12T16:23:46.561Z,2.67
2022-09-12T16:28:56.173Z,2.00
2022-09-12T16:34:01.069Z,2.05
2022-09-12T16:39:04.565Z,2.50
2022-09-12T16:44:08.039Z,2.88
2022-09-12T16:49:13.058Z,2.42
2022-09-12T16:54:17.200Z,2.17
2022-09-12T16:59:20.537Z,2.40
2022-09-12T17:04:25.479Z,2.30
2022-09-12T17:09:29.450Z,2.38
2022-09-12T17:14:32.933Z,2.38
2022-09-12T17:19:37.911Z,2.38
2022-09-12T17:24:41.966Z,2.58
2022-09-12T17:29:45.604Z,4.07
2022-09-12T17:34:50.266Z,3.78
2022-09-12T17:39:53.753Z,3.10
2022-09-12T17:44:58.510Z,3.42
2022-09-12T17:50:30.004Z,3.30
2022-09-12T17:55:26.497Z,3.70
2022-09-12T18:00:44.951Z,4.18
2022-09-12T18:05:52.975Z,4.47
2022-09-12T18:11:05.079Z,4.05
2022-09-12T18:16:11.192Z,4.38
2022-09-12T18:21:16.116Z,4.38
2022-09-12T18:26:19.457Z,4.57
2022-09-12T18:31:25.495Z,4.82
2022-09-12T18:36:30.869Z,5.22
2022-09-12T18:41:34.537Z,4.00
2022-09-12T18:46:39.054Z,4.03
2022-09-12T18:51:44.550Z,4.07
2022-09-12T18:56:48.099Z,4.47
2022-09-12T19:01:51.550Z,3.97
2022-09-12T19:06:56.240Z,3.90
2022-09-12T19:11:59.548Z,3.92
2022-09-12T19:17:03.385Z,4.43
2022-09-12T19:22:08.465Z,4.18
2022-09-12T19:27:13.888Z,4.32
2022-09-12T19:32:17.245Z,4.70
2022-09-12T19:37:21.931Z,3.90
2022-09-12T19:42:25.359Z,4.28
2022-09-12T19:47:29.251Z,4.30
2022-09-12T19:52:34.154Z,4.28
2022-09-12T19:57:37.615Z,4.22
2022-09-12T20:02:40.984Z,5.03
2022-09-12T20:07:45.784Z,4.10
2022-09-12T20:12:49.178Z,4.38
2022-09-12T20:17:55.637Z,4.50
2022-09-12T20:23:00.443Z,4.43
2022-09-12T20:28:04.125Z,5.55
2022-09-12T20:33:07.473Z,5.18
2022-09-12T20:38:12.689Z,4.43
2022-09-12T20:43:16.126Z,5.38
2022-09-12T20:48:19.475Z,5.82
2022-09-12T20:53:24.419Z,5.82
2022-09-12T20:58:28.026Z,7.80
2022-09-12T21:03:31.508Z,5.78
2022-09-12T21:08:37.226Z,5.22
2022-09-12T21:13:40.994Z,6.15
2022-09-12T21:18:44.610Z,7.55
2022-09-12T21:23:50.738Z,8.40
2022-09-12T21:28:54.308Z,7.35
2022-09-12T21:33:57.876Z,6.10
2022-09-12T21:39:02.553Z,6.28
2022-09-12T21:44:06.006Z,8.10
2022-09-12T21:49:09.613Z,6.40
2022-09-12T21:54:14.452Z,6.18
2022-09-12T21:59:17.758Z,6.43
2022-09-12T22:04:21.048Z,7.63
2022-09-12T22:09:25.917Z,7.25
2022-09-12T22:14:29.708Z,8.90
2022-09-12T22:19:33.143Z,7.68
2022-09-12T22:24:38.200Z,8.63
2022-09-12T22:29:42.081Z,9.02
2022-09-12T22:34:45.894Z,8.73
2022-09-12T22:39:50.658Z,8.05
2022-09-12T22:44:54.025Z,8.23
2022-09-12T22:49:57.349Z,7.55
2022-09-12T22:55:02.271Z,7.90
2022-09-12T23:00:07.722Z,7.63
2022-09-12T23:05:11.689Z,8.05
2022-09-12T23:10:16.902Z,7.55
2022-09-12T23:15:20.232Z,7.22
2022-09-12T23:20:23.762Z,7.90
2022-09-12T23:25:28.537Z,8.02
2022-09-12T23:30:32.521Z,7.28
2022-09-12T23:35:36.698Z,7.68
2022-09-12T23:40:41.430Z,7.35
2022-09-12T23:45:44.790Z,7.72
2022-09-12T23:50:49.449Z,7.72
2022-09-12T23:55:54.449Z,7.28
